PAMD METAR and TAF weather

Enter ICAO airport designator
Station Type Date Time Source
PAMD METAR 2019/04/18 14:19 UTC NOAA

PAMD 181419Z AUTO 03004KT 10SM -RA SCT012 OVC030 04/03 A2929 RMK AO2 P0002


Station Type Date Time Source
PAMD Decoded METAR 2019/04/18 14:19 UTC NOAA

Middleton Island, Middleton Island Airport, AK, United States (PAMD) 59-26N 146-18W 14M
Apr 18, 2019 - 10:19 AM EDT / 2019.04.18 1419 UTC
Wind: from the NNE (030 degrees) at 5 MPH (4 KT):0
Visibility: 10 mile(s):0
Sky conditions: overcast
Weather: light rain
Precipitation last hour: 0.02 inches
Temperature: 39 F (4 C)
Dew Point: 37 F (3 C)
Relative Humidity: 93%
Pressure (altimeter): 29.29 in. Hg (991 hPa)
ob: PAMD 181419Z AUTO 03004KT 10SM -RA SCT012 OVC030 04/03 A2929 RMK AO2 P0002
cycle: 14

Station Type Date Time Source
PAMD TAF UTC NOAA

Error!

Example: see airport list